createdAt,value
2018-01-16T00:01:18.300Z,20.54
2018-01-16T00:03:45.872Z,20.55
2018-01-16T00:06:13.466Z,20.57
2018-01-16T00:08:41.055Z,20.58
2018-01-16T00:11:08.663Z,20.60
2018-01-16T00:13:36.234Z,20.60
2018-01-16T00:16:07.491Z,20.61
2018-01-16T00:18:35.056Z,20.57
2018-01-16T00:21:02.632Z,20.55
2018-01-16T00:23:30.126Z,20.52
2018-01-16T00:25:57.656Z,20.51
2018-01-16T00:28:25.253Z,20.48
2018-01-16T00:30:52.769Z,20.46
2018-01-16T00:33:20.373Z,20.44
2018-01-16T00:35:47.976Z,20.43
2018-01-16T00:38:15.563Z,20.42
2018-01-16T00:40:43.114Z,20.43
2018-01-16T00:43:10.623Z,20.43
2018-01-16T00:45:38.358Z,20.42
2018-01-16T00:48:05.936Z,20.43
2018-01-16T00:50:33.519Z,20.44
2018-01-16T00:53:01.025Z,20.45
2018-01-16T00:55:28.628Z,20.45
2018-01-16T00:57:56.200Z,20.47
2018-01-16T01:00:23.716Z,20.50
2018-01-16T01:02:51.298Z,20.50
2018-01-16T01:05:18.897Z,20.52
2018-01-16T01:07:46.472Z,20.55
2018-01-16T01:10:22.365Z,20.55
2018-01-16T01:12:49.920Z,20.51
2018-01-16T01:15:17.419Z,20.49
2018-01-16T01:17:45.005Z,20.44
2018-01-16T01:20:12.514Z,20.43
2018-01-16T01:22:40.095Z,20.42
2018-01-16T01:25:07.689Z,20.39
2018-01-16T01:27:35.273Z,20.38
2018-01-16T01:30:02.887Z,20.38
2018-01-16T01:32:30.401Z,20.37
2018-01-16T01:34:57.971Z,20.37
2018-01-16T01:37:25.544Z,20.37
2018-01-16T01:39:53.125Z,20.34
2018-01-16T01:42:20.702Z,20.37
2018-01-16T01:44:48.280Z,20.39
2018-01-16T01:47:15.879Z,20.40
2018-01-16T01:49:43.487Z,20.41
2018-01-16T01:52:11.034Z,20.42
2018-01-16T01:54:38.623Z,20.42
2018-01-16T01:57:06.138Z,20.43
2018-01-16T01:59:33.660Z,20.44
2018-01-16T02:02:01.253Z,20.44
2018-01-16T02:04:28.811Z,20.45
2018-01-16T02:06:56.309Z,20.47
2018-01-16T02:09:23.987Z,20.48
2018-01-16T02:11:51.571Z,20.48
2018-01-16T02:14:19.075Z,20.43
2018-01-16T02:16:47.045Z,20.40
2018-01-16T02:19:14.655Z,20.38
2018-01-16T02:21:42.231Z,20.37
2018-01-16T02:24:09.800Z,20.35
2018-01-16T02:26:37.372Z,20.34
2018-01-16T02:29:04.935Z,20.35
2018-01-16T02:31:32.539Z,20.36
2018-01-16T02:34:00.107Z,20.39
2018-01-16T02:36:27.613Z,20.42
2018-01-16T02:38:55.234Z,20.44
2018-01-16T02:41:22.800Z,20.47
2018-01-16T02:43:50.367Z,20.50
2018-01-16T02:46:18.000Z,20.52
2018-01-16T02:48:45.572Z,20.48
2018-01-16T02:51:13.212Z,20.48
2018-01-16T02:53:41.022Z,20.43
2018-01-16T02:56:08.601Z,20.41
2018-01-16T02:58:36.201Z,20.38
2018-01-16T03:01:03.788Z,20.36
2018-01-16T03:03:31.375Z,20.34
2018-01-16T03:05:58.878Z,20.33
2018-01-16T03:08:26.808Z,20.32
2018-01-16T03:10:54.308Z,20.32
2018-01-16T03:13:21.922Z,20.32
2018-01-16T03:15:53.209Z,20.32
2018-01-16T03:18:20.709Z,20.34
2018-01-16T03:20:48.291Z,20.33
2018-01-16T03:23:15.880Z,20.35
2018-01-16T03:25:43.479Z,20.35
2018-01-16T03:28:11.048Z,20.36
2018-01-16T03:30:38.661Z,20.35
2018-01-16T03:33:06.248Z,20.36
2018-01-16T03:35:33.823Z,20.38
2018-01-16T03:38:01.386Z,20.39
2018-01-16T03:40:28.904Z,20.40
2018-01-16T03:42:56.472Z,20.42
2018-01-16T03:45:24.029Z,20.45
2018-01-16T03:47:51.588Z,20.47
2018-01-16T03:50:19.149Z,20.49
2018-01-16T03:55:19.830Z,20.46
2018-01-16T03:57:47.398Z,20.47
2018-01-16T04:00:14.905Z,20.46
2018-01-16T04:02:42.473Z,20.47
2018-01-16T04:05:11.255Z,20.46
2018-01-16T04:07:38.819Z,20.47
2018-01-16T04:10:06.387Z,20.48
2018-01-16T04:12:33.883Z,20.50
2018-01-16T04:15:01.448Z,20.50
2018-01-16T04:17:30.118Z,20.51
2018-01-16T04:19:57.622Z,20.52
2018-01-16T04:22:25.167Z,20.54
2018-01-16T04:24:52.650Z,20.56
2018-01-16T04:27:20.233Z,20.57
2018-01-16T04:29:47.787Z,20.57
2018-01-16T04:32:15.345Z,20.58
2018-01-16T04:34:42.824Z,20.58
2018-01-16T04:37:10.389Z,20.58
2018-01-16T04:39:37.992Z,20.57
2018-01-16T04:42:05.479Z,20.54
2018-01-16T04:44:32.965Z,20.51
2018-01-16T04:47:00.449Z,20.51
2018-01-16T04:49:28.009Z,20.48
2018-01-16T04:51:55.572Z,20.46
2018-01-16T04:54:23.176Z,20.44
2018-01-16T04:56:50.700Z,20.43
2018-01-16T04:59:18.248Z,20.41
2018-01-16T05:01:45.805Z,20.40
2018-01-16T05:04:13.362Z,20.41
2018-01-16T05:06:40.926Z,20.40
2018-01-16T05:09:08.492Z,20.41
2018-01-16T05:11:36.042Z,20.42
2018-01-16T05:14:03.565Z,20.41
2018-01-16T05:16:31.122Z,20.41
2018-01-16T05:18:58.864Z,20.41
2018-01-16T05:21:26.377Z,20.41
2018-01-16T05:23:53.962Z,20.38
2018-01-16T05:26:21.527Z,20.41
2018-01-16T05:28:49.089Z,20.40
2018-01-16T05:31:16.568Z,20.38
2018-01-16T05:33:44.116Z,20.40
2018-01-16T05:36:11.688Z,20.40
2018-01-16T05:38:39.253Z,20.40
2018-01-16T05:41:06.819Z,20.41
2018-01-16T05:43:34.371Z,20.41
2018-01-16T05:46:01.932Z,20.41
2018-01-16T05:48:29.506Z,20.40
2018-01-16T05:50:56.990Z,20.40
2018-01-16T05:53:24.571Z,20.40
2018-01-16T05:55:52.115Z,20.39
2018-01-16T05:58:19.671Z,20.40
2018-01-16T06:00:47.162Z,20.39
2018-01-16T06:03:14.730Z,20.39
2018-01-16T06:05:42.238Z,20.39
2018-01-16T06:08:09.796Z,20.39
2018-01-16T06:10:37.385Z,20.40
2018-01-16T06:13:04.945Z,20.40
2018-01-16T06:15:32.494Z,20.41
2018-01-16T06:18:00.060Z,20.40
2018-01-16T06:20:27.547Z,20.41
2018-01-16T06:22:55.095Z,20.40
2018-01-16T06:25:22.683Z,20.42
2018-01-16T06:27:50.279Z,20.42
2018-01-16T06:30:17.837Z,20.43
2018-01-16T06:32:45.325Z,20.43
2018-01-16T06:35:12.805Z,20.45
2018-01-16T06:37:40.346Z,20.47
2018-01-16T06:40:07.914Z,20.49
2018-01-16T06:42:35.475Z,20.48
2018-01-16T06:45:03.034Z,20.48
2018-01-16T06:47:30.521Z,20.50
2018-01-16T06:49:58.076Z,20.49
2018-01-16T06:52:25.637Z,20.49
2018-01-16T06:54:53.208Z,20.49
2018-01-16T06:57:20.756Z,20.49
2018-01-16T06:59:48.241Z,20.48
2018-01-16T07:02:15.790Z,20.50
2018-01-16T07:04:43.340Z,20.52
2018-01-16T07:07:10.935Z,20.50
2018-01-16T07:09:38.513Z,20.51
2018-01-16T07:12:06.077Z,20.51
2018-01-16T07:14:33.636Z,20.51
2018-01-16T07:17:01.132Z,20.51
2018-01-16T07:19:28.699Z,20.50
2018-01-16T07:21:56.264Z,20.48
2018-01-16T07:24:23.875Z,20.45
2018-01-16T07:26:51.452Z,20.43
2018-01-16T07:29:19.048Z,20.41
2018-01-16T07:31:46.618Z,20.40
2018-01-16T07:34:14.176Z,20.40
2018-01-16T07:36:41.770Z,20.40
2018-01-16T07:39:09.323Z,20.40
2018-01-16T07:41:36.883Z,20.38
2018-01-16T07:44:04.462Z,20.38
2018-01-16T07:46:32.035Z,20.39
2018-01-16T07:48:59.602Z,20.37
2018-01-16T07:51:27.169Z,20.37
2018-01-16T07:53:54.726Z,20.37
2018-01-16T07:56:22.284Z,20.37
2018-01-16T07:58:49.844Z,20.37
2018-01-16T08:01:17.398Z,20.37
2018-01-16T08:03:44.927Z,20.37
2018-01-16T08:06:12.418Z,20.37
2018-01-16T08:08:39.980Z,20.38
2018-01-16T08:11:07.583Z,20.39
2018-01-16T08:13:35.148Z,20.40
2018-01-16T08:16:02.638Z,20.39
2018-01-16T08:18:30.203Z,20.38
2018-01-16T08:20:57.776Z,20.37
2018-01-16T08:23:25.265Z,20.37
2018-01-16T08:25:52.745Z,20.35
2018-01-16T08:28:20.313Z,20.36
2018-01-16T08:30:47.813Z,20.38
2018-01-16T08:33:15.432Z,20.38
2018-01-16T08:35:42.921Z,20.39
2018-01-16T08:38:10.475Z,20.37
2018-01-16T08:40:38.034Z,20.40
2018-01-16T08:43:05.608Z,20.38
2018-01-16T08:45:33.207Z,20.41
2018-01-16T08:48:00.776Z,20.42
2018-01-16T08:50:28.333Z,20.42
2018-01-16T08:52:55.894Z,20.42
2018-01-16T08:55:23.448Z,20.42
2018-01-16T08:57:51.044Z,20.43
2018-01-16T09:00:18.604Z,20.43
2018-01-16T09:02:46.165Z,20.44
2018-01-16T09:05:13.718Z,20.44
2018-01-16T09:07:41.275Z,20.47
2018-01-16T09:10:08.832Z,20.49
2018-01-16T09:12:36.405Z,20.50
2018-01-16T09:15:04.020Z,20.52
2018-01-16T09:17:31.575Z,20.57
2018-01-16T09:19:59.122Z,20.62
2018-01-16T09:22:26.615Z,20.65
2018-01-16T09:24:54.281Z,20.70
2018-01-16T09:27:21.778Z,20.74
2018-01-16T09:29:49.349Z,20.78
2018-01-16T09:32:16.899Z,20.82
2018-01-16T09:34:44.455Z,20.85
2018-01-16T09:37:11.957Z,20.90
2018-01-16T09:39:39.447Z,20.95
2018-01-16T09:42:06.940Z,20.98
2018-01-16T09:44:34.503Z,21.03
2018-01-16T09:47:02.099Z,21.09
2018-01-16T09:49:29.591Z,21.12
2018-01-16T09:51:57.139Z,21.16
2018-01-16T09:54:24.689Z,21.21
2018-01-16T09:56:52.250Z,21.24
2018-01-16T09:59:19.843Z,21.27
2018-01-16T10:01:47.403Z,21.29
2018-01-16T10:04:14.964Z,21.31
2018-01-16T10:06:42.459Z,21.34
2018-01-16T10:09:10.029Z,21.35
2018-01-16T10:11:37.596Z,21.34
2018-01-16T10:14:05.161Z,21.29
2018-01-16T10:16:32.757Z,21.24
2018-01-16T10:19:00.313Z,21.17
2018-01-16T10:21:27.808Z,21.11
2018-01-16T10:23:55.301Z,21.05
2018-01-16T10:26:22.881Z,21.00
2018-01-16T10:28:50.484Z,20.97
2018-01-16T10:31:18.044Z,20.96
2018-01-16T10:33:45.599Z,20.95
2018-01-16T10:36:13.161Z,20.95
2018-01-16T10:38:40.767Z,20.91
2018-01-16T10:41:08.324Z,20.90
2018-01-16T10:43:35.888Z,20.89
2018-01-16T10:46:03.445Z,20.90
2018-01-16T10:48:31.018Z,20.88
2018-01-16T10:50:58.705Z,20.86
2018-01-16T10:53:26.201Z,20.85
2018-01-16T10:55:53.771Z,20.87
2018-01-16T10:58:21.296Z,20.90
2018-01-16T11:00:48.896Z,20.94
2018-01-16T11:03:16.407Z,20.95
2018-01-16T11:05:43.914Z,20.96
2018-01-16T11:08:11.503Z,20.98
2018-01-16T11:10:39.136Z,21.00
2018-01-16T11:13:06.713Z,21.02
2018-01-16T11:15:34.531Z,21.06
2018-01-16T11:18:02.189Z,21.12
2018-01-16T11:20:29.854Z,21.16
2018-01-16T11:22:57.442Z,21.19
2018-01-16T11:25:25.116Z,21.16
2018-01-16T11:27:52.651Z,21.21
2018-01-16T11:30:20.246Z,21.21
2018-01-16T11:32:47.812Z,21.20
2018-01-16T11:35:15.334Z,21.19
2018-01-16T11:37:42.949Z,21.17
2018-01-16T11:40:10.531Z,21.14
2018-01-16T11:42:38.092Z,21.11
2018-01-16T11:45:05.708Z,21.09
2018-01-16T11:47:33.263Z,21.05
2018-01-16T11:50:00.855Z,21.03
2018-01-16T11:52:28.616Z,21.02
2018-01-16T11:54:56.110Z,21.02
2018-01-16T11:57:23.688Z,21.01
2018-01-16T11:59:51.246Z,21.00
2018-01-16T12:02:18.810Z,20.98
2018-01-16T12:04:46.389Z,20.95
2018-01-16T12:07:13.897Z,20.92
2018-01-16T12:09:41.464Z,20.88
2018-01-16T12:12:09.283Z,20.87
2018-01-16T12:14:36.842Z,20.84
2018-01-16T12:17:04.333Z,20.83
2018-01-16T12:19:31.835Z,20.81
2018-01-16T12:21:59.410Z,20.81
2018-01-16T12:24:26.905Z,20.79
2018-01-16T12:26:54.466Z,20.79
2018-01-16T12:29:21.958Z,20.76
2018-01-16T12:31:49.530Z,20.75
2018-01-16T12:34:17.025Z,20.73
2018-01-16T12:36:44.621Z,20.71
2018-01-16T12:39:12.109Z,20.71
2018-01-16T12:41:40.857Z,20.72
2018-01-16T12:44:08.436Z,20.71
2018-01-16T12:46:35.997Z,20.72
2018-01-16T12:49:03.519Z,20.72
2018-01-16T12:51:31.025Z,20.72
2018-01-16T12:53:58.705Z,20.71
2018-01-16T12:56:26.280Z,20.68
2018-01-16T12:58:53.773Z,20.66
2018-01-16T13:01:21.353Z,20.64
2018-01-16T13:03:48.918Z,20.64
2018-01-16T13:06:16.494Z,20.63
2018-01-16T13:08:44.003Z,20.64
2018-01-16T13:11:11.602Z,20.64
2018-01-16T13:13:39.174Z,20.64
2018-01-16T13:16:06.685Z,20.65
2018-01-16T13:18:34.243Z,20.64
2018-01-16T13:21:01.746Z,20.61
2018-01-16T13:23:30.168Z,20.59
2018-01-16T13:25:57.729Z,20.57
2018-01-16T13:28:25.249Z,20.57
2018-01-16T13:30:52.749Z,20.57
2018-01-16T13:33:20.310Z,20.57
2018-01-16T13:35:48.460Z,20.57
2018-01-16T13:38:16.059Z,20.57
2018-01-16T13:40:43.557Z,20.57
2018-01-16T13:43:11.132Z,20.58
2018-01-16T13:45:38.716Z,20.57
2018-01-16T13:48:06.236Z,20.55
2018-01-16T13:50:33.811Z,20.55
2018-01-16T13:53:01.314Z,20.51
2018-01-16T13:55:28.882Z,20.49
2018-01-16T13:57:56.447Z,20.45
2018-01-16T14:00:24.033Z,20.43
2018-01-16T14:02:51.531Z,20.41
2018-01-16T14:05:19.101Z,20.39
2018-01-16T14:07:46.614Z,20.37
2018-01-16T14:10:14.194Z,20.35
2018-01-16T14:12:41.800Z,20.34
2018-01-16T14:15:09.297Z,20.35
2018-01-16T14:17:36.892Z,20.35
2018-01-16T14:20:04.488Z,20.37
2018-01-16T14:22:32.060Z,20.39
2018-01-16T14:24:59.566Z,20.40
2018-01-16T14:27:27.058Z,20.41
2018-01-16T14:29:55.150Z,20.40
2018-01-16T14:32:22.722Z,20.42
2018-01-16T14:34:50.304Z,20.41
2018-01-16T14:37:18.780Z,20.41
2018-01-16T14:39:46.347Z,20.39
2018-01-16T14:42:13.946Z,20.38
2018-01-16T14:44:41.559Z,20.37
2018-01-16T14:47:09.987Z,20.37
2018-01-16T14:49:37.556Z,20.38
2018-01-16T14:52:05.156Z,20.38
2018-01-16T14:54:32.702Z,20.37
2018-01-16T14:57:00.281Z,20.39
2018-01-16T14:59:28.692Z,20.39
2018-01-16T15:01:59.614Z,20.39
2018-01-16T15:04:27.236Z,20.40
2018-01-16T15:06:54.812Z,20.41
2018-01-16T15:09:23.731Z,20.40
2018-01-16T15:11:51.293Z,20.41
2018-01-16T15:14:18.880Z,20.41
2018-01-16T15:16:46.847Z,20.41
2018-01-16T15:19:14.676Z,20.38
2018-01-16T15:21:45.186Z,20.37
2018-01-16T15:24:12.781Z,20.35
2018-01-16T15:26:40.354Z,20.35
2018-01-16T15:29:07.975Z,20.33
2018-01-16T15:31:35.561Z,20.33
2018-01-16T15:34:04.399Z,20.31
2018-01-16T15:36:32.066Z,20.32
2018-01-16T15:39:00.234Z,20.33
2018-01-16T15:41:32.950Z,20.34
2018-01-16T15:44:00.587Z,20.34
2018-01-16T15:46:28.657Z,20.35
2018-01-16T15:48:56.237Z,20.34
2018-01-16T15:51:24.444Z,20.34
2018-01-16T15:53:51.969Z,20.35
2018-01-16T15:56:20.175Z,20.36
2018-01-16T15:58:52.444Z,20.36
2018-01-16T16:01:22.389Z,20.37
2018-01-16T16:03:49.974Z,20.37
2018-01-16T16:06:18.310Z,20.37
2018-01-16T16:08:46.518Z,20.36
2018-01-16T16:11:14.101Z,20.36
2018-01-16T16:13:41.766Z,20.35
2018-01-16T16:16:11.055Z,20.35
2018-01-16T16:18:39.315Z,20.36
2018-01-16T16:21:06.960Z,20.36
2018-01-16T16:23:34.458Z,20.36
2018-01-16T16:26:02.044Z,20.35
2018-01-16T16:28:29.642Z,20.34
2018-01-16T16:30:57.210Z,20.34
2018-01-16T16:33:24.781Z,20.35
2018-01-16T16:36:15.717Z,20.37
2018-01-16T16:38:47.453Z,20.39
2018-01-16T16:41:15.016Z,20.38
2018-01-16T16:43:42.739Z,20.40
2018-01-16T16:46:10.300Z,20.41
2018-01-16T16:48:37.941Z,20.42
2018-01-16T16:51:05.504Z,20.42
2018-01-16T16:53:33.072Z,20.43
2018-01-16T16:56:00.631Z,20.43
2018-01-16T16:58:28.228Z,20.36
2018-01-16T17:00:55.842Z,20.44
2018-01-16T17:03:23.342Z,20.45
2018-01-16T17:05:51.008Z,20.44
2018-01-16T17:08:20.593Z,20.45
2018-01-16T17:10:49.111Z,20.46
2018-01-16T17:13:16.855Z,20.46
2018-01-16T17:15:44.571Z,20.45
2018-01-16T17:18:14.742Z,20.48
2018-01-16T17:20:42.340Z,20.46
2018-01-16T17:23:09.949Z,20.45
2018-01-16T17:25:37.820Z,20.48
2018-01-16T17:28:05.460Z,20.49
2018-01-16T17:30:33.037Z,20.49
2018-01-16T17:33:01.220Z,20.50
2018-01-16T17:35:28.823Z,20.51
2018-01-16T17:37:57.329Z,20.53
2018-01-16T17:40:26.695Z,20.53
2018-01-16T17:42:54.969Z,20.53
2018-01-16T17:45:22.571Z,20.53
2018-01-16T17:47:50.705Z,20.56
2018-01-16T17:50:18.448Z,20.56
2018-01-16T17:52:45.963Z,20.55
2018-01-16T17:55:13.590Z,20.56
2018-01-16T17:57:41.120Z,20.56
2018-01-16T18:00:08.708Z,20.53
2018-01-16T18:02:36.920Z,20.59
2018-01-16T18:05:04.470Z,20.60
2018-01-16T18:07:32.038Z,20.61
2018-01-16T18:09:59.623Z,20.62
2018-01-16T18:12:27.164Z,20.62
2018-01-16T18:14:54.872Z,20.61
2018-01-16T18:17:22.559Z,20.64
2018-01-16T18:19:50.143Z,20.68
2018-01-16T18:22:17.643Z,20.72
2018-01-16T18:24:45.242Z,20.77
2018-01-16T18:27:12.794Z,20.81
2018-01-16T18:29:40.318Z,20.84
2018-01-16T18:32:07.819Z,20.88
2018-01-16T18:34:35.384Z,20.91
2018-01-16T18:37:03.073Z,20.96
2018-01-16T18:39:30.637Z,21.00
2018-01-16T18:41:58.849Z,21.01
2018-01-16T18:44:26.362Z,21.03
2018-01-16T18:46:53.931Z,21.02
2018-01-16T18:49:42.621Z,21.03
2018-01-16T18:52:10.222Z,21.01
2018-01-16T18:54:37.711Z,21.02
2018-01-16T18:57:05.249Z,21.03
2018-01-16T18:59:36.063Z,21.04
2018-01-16T19:02:13.787Z,21.05
2018-01-16T19:04:46.870Z,21.04
2018-01-16T19:07:34.110Z,21.06
2018-01-16T19:10:02.567Z,21.03
2018-01-16T19:12:30.089Z,21.02
2018-01-16T19:14:57.677Z,21.02
2018-01-16T19:17:25.277Z,21.04
2018-01-16T19:19:52.769Z,21.03
2018-01-16T19:22:20.374Z,21.04
2018-01-16T19:24:47.878Z,21.05
2018-01-16T19:27:15.460Z,21.06
2018-01-16T19:29:43.069Z,21.07
2018-01-16T19:32:11.258Z,21.08
2018-01-16T19:34:38.750Z,21.05
2018-01-16T19:37:06.365Z,21.07
2018-01-16T19:39:33.962Z,21.05
2018-01-16T19:42:01.542Z,21.08
2018-01-16T19:44:29.153Z,21.05
2018-01-16T19:46:57.565Z,21.04
2018-01-16T19:49:25.128Z,20.99
2018-01-16T19:51:52.742Z,20.96
2018-01-16T19:54:20.306Z,20.93
2018-01-16T19:56:47.861Z,20.92
2018-01-16T19:59:28.414Z,20.96
2018-01-16T20:01:56.801Z,20.95
2018-01-16T20:04:25.962Z,20.95
2018-01-16T20:06:54.208Z,20.95
2018-01-16T20:09:21.765Z,20.95
2018-01-16T20:11:59.840Z,20.93
2018-01-16T20:14:38.414Z,20.93
2018-01-16T20:17:13.983Z,20.91
2018-01-16T20:19:47.512Z,20.94
2018-01-16T20:22:20.996Z,20.98
2018-01-16T20:24:53.555Z,21.00
2018-01-16T20:27:32.334Z,21.01
2018-01-16T20:30:00.746Z,21.01
2018-01-16T20:32:29.917Z,21.01
2018-01-16T20:35:00.404Z,21.01
2018-01-16T20:37:40.216Z,21.01
2018-01-16T20:42:49.554Z,21.02
2018-01-16T21:37:16.019Z,20.50
2018-01-16T21:39:52.922Z,20.50
2018-01-16T21:42:20.479Z,20.57
2018-01-16T21:44:48.037Z,20.63
2018-01-16T21:47:18.250Z,20.67
2018-01-16T21:49:47.437Z,20.71
2018-01-16T21:52:21.723Z,20.74
2018-01-16T21:54:49.885Z,20.78
2018-01-16T21:57:17.601Z,20.80
2018-01-16T21:59:45.984Z,20.84
2018-01-16T22:05:01.003Z,20.86
2018-01-16T22:07:28.560Z,20.88
2018-01-16T22:09:56.123Z,20.88
2018-01-16T22:12:23.732Z,20.88
2018-01-16T22:14:51.295Z,20.88
2018-01-16T22:17:18.870Z,20.87
2018-01-16T22:19:46.519Z,20.87
2018-01-16T22:22:14.100Z,20.85
2018-01-16T22:24:41.633Z,20.85
2018-01-16T22:27:09.245Z,20.85
2018-01-16T22:29:36.816Z,20.85
2018-01-16T22:32:04.427Z,20.83
2018-01-16T22:34:31.925Z,20.84
2018-01-16T22:36:59.483Z,20.83
2018-01-16T22:39:27.069Z,20.83
2018-01-16T22:41:54.629Z,20.81
2018-01-16T22:44:22.196Z,20.82
2018-01-16T22:46:49.791Z,20.80
2018-01-16T22:49:17.322Z,20.80
2018-01-16T22:51:44.921Z,20.79
2018-01-16T22:54:12.522Z,20.78
2018-01-16T22:56:40.095Z,20.77
2018-01-16T22:59:07.595Z,20.76
2018-01-16T23:01:35.118Z,20.76
2018-01-16T23:04:02.675Z,20.75
2018-01-16T23:06:30.174Z,20.74
2018-01-16T23:08:57.779Z,20.73
2018-01-16T23:11:25.403Z,20.71
2018-01-16T23:13:52.885Z,20.71
2018-01-16T23:16:20.407Z,20.70
2018-01-16T23:18:47.980Z,20.69
2018-01-16T23:21:15.545Z,20.69
2018-01-16T23:23:43.140Z,20.69
2018-01-16T23:26:10.712Z,20.69
2018-01-16T23:28:38.272Z,20.69
2018-01-16T23:31:05.904Z,20.68
2018-01-16T23:33:33.468Z,20.68
2018-01-16T23:36:00.961Z,20.69
2018-01-16T23:38:28.576Z,20.68
2018-01-16T23:40:56.069Z,20.68
2018-01-16T23:43:23.641Z,20.68
2018-01-16T23:45:51.226Z,20.68
2018-01-16T23:48:18.781Z,20.68
2018-01-16T23:50:46.278Z,20.68
2018-01-16T23:53:13.879Z,20.68
2018-01-16T23:55:41.444Z,20.67
2018-01-16T23:58:09.003Z,20.66
